createdAt,value
2022-09-20T00:01:29.361Z,8.49
2022-09-20T00:04:17.290Z,8.47
2022-09-20T00:07:04.013Z,8.39
2022-09-20T00:09:51.022Z,8.45
2022-09-20T00:12:37.815Z,8.35
2022-09-20T00:15:24.520Z,8.35
2022-09-20T00:18:12.524Z,8.24
2022-09-20T00:21:00.576Z,8.27
2022-09-20T00:23:47.521Z,8.31
2022-09-20T00:26:34.153Z,8.17
2022-09-20T00:29:21.015Z,8.27
2022-09-20T00:32:07.855Z,8.18
2022-09-20T00:35:17.588Z,8.05
2022-09-20T00:38:05.525Z,8.13
2022-09-20T00:40:52.127Z,7.95
2022-09-20T00:43:41.297Z,8.02
2022-09-20T00:46:30.836Z,7.87
2022-09-20T00:49:21.570Z,7.93
2022-09-20T00:52:08.089Z,7.88
2022-09-20T00:54:57.471Z,7.81
2022-09-20T00:57:45.916Z,7.76
2022-09-20T01:00:32.487Z,7.74
2022-09-20T01:03:23.029Z,7.82
2022-09-20T01:06:14.650Z,7.78
2022-09-20T01:09:03.958Z,7.75
2022-09-20T01:11:55.523Z,7.71
2022-09-20T01:14:45.174Z,7.61
2022-09-20T01:17:35.802Z,7.68
2022-09-20T01:20:26.841Z,7.85
2022-09-20T01:23:27.533Z,7.79
2022-09-20T01:26:31.782Z,7.78
2022-09-20T01:29:35.098Z,7.70
2022-09-20T01:32:27.337Z,7.71
2022-09-20T01:35:16.118Z,7.66
2022-09-20T01:38:22.807Z,7.58
2022-09-20T01:41:13.705Z,7.52
2022-09-20T01:44:07.966Z,7.52
2022-09-20T01:47:02.043Z,7.48
2022-09-20T01:49:57.584Z,7.45
2022-09-20T01:53:26.545Z,7.39
2022-09-20T01:56:41.637Z,7.31
2022-09-20T01:59:55.283Z,7.39
2022-09-20T02:03:15.701Z,7.48
2022-09-20T02:06:43.381Z,7.37
2022-09-20T02:10:01.923Z,7.30
2022-09-20T02:13:03.159Z,7.28
2022-09-20T02:16:12.151Z,7.36
2022-09-20T02:19:43.212Z,7.38
2022-09-20T02:22:42.942Z,7.52
2022-09-20T02:25:50.929Z,7.46
2022-09-20T02:28:56.906Z,7.45
2022-09-20T02:32:19.565Z,7.48
2022-09-20T02:35:30.564Z,7.59
2022-09-20T02:38:34.432Z,7.55
2022-09-20T02:41:48.438Z,7.48
2022-09-20T02:44:47.595Z,7.51
2022-09-20T02:47:37.320Z,7.43
2022-09-20T02:50:32.829Z,7.32
2022-09-20T02:53:36.703Z,7.22
2022-09-20T02:56:30.829Z,7.20
2022-09-20T02:59:27.340Z,7.15
2022-09-20T03:02:24.002Z,7.16
2022-09-20T03:05:19.815Z,7.22
2022-09-20T03:08:21.975Z,7.08
2022-09-20T03:11:20.048Z,7.17
2022-09-20T03:14:23.168Z,6.99
2022-09-20T03:17:21.193Z,6.92
2022-09-20T03:20:36.145Z,6.95
2022-09-20T03:23:40.597Z,6.86
2022-09-20T03:26:41.129Z,6.85
2022-09-20T03:29:41.953Z,6.84
2022-09-20T03:32:44.946Z,6.81
2022-09-20T03:35:44.895Z,6.80
2022-09-20T03:38:47.218Z,6.75
2022-09-20T03:41:48.089Z,6.80
2022-09-20T03:45:13.305Z,6.72
2022-09-20T03:48:30.708Z,6.72
2022-09-20T03:51:33.803Z,6.71
2022-09-20T03:55:04.137Z,6.71
2022-09-20T03:58:09.213Z,6.74
2022-09-20T04:01:10.058Z,6.73
2022-09-20T04:04:04.781Z,6.79
2022-09-20T04:07:13.902Z,6.79
2022-09-20T04:10:18.134Z,6.78
2022-09-20T04:13:26.804Z,6.80
2022-09-20T04:16:29.514Z,6.78
2022-09-20T04:19:29.635Z,6.84
2022-09-20T04:22:22.629Z,6.83
2022-09-20T04:25:18.517Z,6.77
2022-09-20T04:28:15.853Z,6.73
2022-09-20T04:31:12.494Z,6.75
2022-09-20T04:34:04.023Z,6.75
2022-09-20T04:37:02.853Z,6.83
2022-09-20T04:40:01.507Z,6.76
2022-09-20T04:43:34.210Z,6.69
2022-09-20T04:46:58.495Z,6.72
2022-09-20T04:50:15.424Z,6.80
2022-09-20T04:53:30.424Z,6.76
2022-09-20T04:56:23.793Z,6.80
2022-09-20T04:59:21.533Z,6.81
2022-09-20T05:02:42.096Z,6.88
2022-09-20T05:05:51.418Z,6.94
2022-09-20T05:09:13.712Z,6.94
2022-09-20T05:12:34.567Z,6.95
2022-09-20T05:15:50.930Z,7.07
2022-09-20T05:19:07.929Z,7.22
2022-09-20T05:22:24.882Z,7.23
2022-09-20T05:25:42.373Z,7.29
2022-09-20T05:28:35.666Z,7.35
2022-09-20T05:31:32.326Z,7.48
2022-09-20T05:34:29.305Z,7.61
2022-09-20T05:37:26.254Z,7.71
2022-09-20T05:40:26.631Z,7.80
2022-09-20T05:43:20.981Z,7.86
2022-09-20T05:46:18.865Z,8.17
2022-09-20T05:49:19.302Z,8.30
2022-09-20T05:52:25.413Z,8.39
2022-09-20T05:55:32.186Z,8.52
2022-09-20T05:58:35.571Z,8.72
2022-09-20T06:01:27.374Z,8.78
2022-09-20T06:04:20.879Z,8.88
2022-09-20T06:07:19.607Z,8.98
2022-09-20T06:10:54.184Z,9.07
2022-09-20T06:13:53.319Z,9.13
2022-09-20T06:16:48.176Z,9.35
2022-09-20T06:19:42.654Z,9.33
2022-09-20T06:22:34.542Z,9.29
2022-09-20T06:25:25.810Z,9.41
2022-09-20T06:28:17.369Z,9.34
2022-09-20T06:31:07.421Z,9.46
2022-09-20T06:33:58.689Z,9.56
2022-09-20T06:37:09.489Z,9.56
2022-09-20T06:40:25.328Z,9.52
2022-09-20T06:43:14.625Z,9.56
2022-09-20T06:46:01.188Z,9.50
2022-09-20T06:48:48.126Z,9.45
2022-09-20T06:51:36.300Z,9.57
2022-09-20T06:54:24.424Z,9.61
2022-09-20T06:57:13.032Z,9.59
2022-09-20T06:59:59.562Z,9.51
2022-09-20T07:02:46.801Z,9.51
2022-09-20T07:05:33.499Z,9.48
2022-09-20T07:08:20.239Z,9.42
2022-09-20T07:11:10.774Z,9.36
2022-09-20T07:13:59.533Z,9.42
2022-09-20T07:16:46.240Z,9.35
2022-09-20T07:19:32.771Z,9.32
2022-09-20T07:22:19.524Z,9.27
2022-09-20T07:25:07.253Z,9.42
2022-09-20T07:27:55.385Z,9.49
2022-09-20T07:30:43.009Z,9.39
2022-09-20T07:33:29.591Z,9.33
2022-09-20T07:36:16.668Z,9.32
2022-09-20T07:39:03.197Z,9.40
2022-09-20T07:41:50.840Z,9.58
2022-09-20T07:44:42.390Z,9.68
2022-09-20T07:47:28.906Z,9.76
2022-09-20T07:50:15.889Z,9.97
2022-09-20T07:53:02.916Z,10.07
2022-09-20T07:56:00.386Z,10.33
2022-09-20T07:58:52.212Z,10.35
2022-09-20T08:01:40.924Z,10.54
2022-09-20T08:04:28.265Z,10.74
2022-09-20T08:07:15.187Z,10.88
2022-09-20T08:10:01.955Z,11.02
2022-09-20T08:16:02.784Z,11.07
2022-09-20T08:18:53.134Z,11.09
2022-09-20T08:21:39.910Z,11.14
2022-09-20T08:24:27.261Z,11.10
2022-09-20T08:27:14.069Z,11.20
2022-09-20T08:30:01.335Z,11.19
2022-09-20T08:32:48.387Z,11.22
2022-09-20T08:35:38.656Z,11.27
2022-09-20T08:41:39.007Z,11.58
2022-09-20T08:44:29.606Z,11.62
2022-09-20T08:47:20.476Z,11.54
2022-09-20T08:50:10.141Z,11.75
2022-09-20T08:53:05.139Z,11.86
2022-09-20T08:55:51.962Z,11.89
2022-09-20T08:58:39.600Z,11.98
2022-09-20T09:01:29.426Z,11.95
2022-09-20T09:04:18.514Z,12.18
2022-09-20T09:07:07.699Z,12.21
2022-09-20T09:09:57.882Z,12.24
2022-09-20T09:12:48.764Z,12.36
2022-09-20T09:15:37.827Z,12.41
2022-09-20T09:18:32.257Z,12.62
2022-09-20T09:21:21.657Z,12.90
2022-09-20T09:24:16.079Z,13.02
2022-09-20T09:27:16.546Z,13.35
2022-09-20T09:30:03.120Z,13.54
2022-09-20T09:32:50.245Z,13.71
2022-09-20T09:35:37.776Z,13.75
2022-09-20T09:38:26.537Z,13.84
2022-09-20T09:41:26.525Z,13.82
2022-09-20T09:44:30.765Z,13.87
2022-09-20T09:47:32.546Z,13.84
2022-09-20T09:50:37.138Z,13.61
2022-09-20T09:53:32.655Z,13.51
2022-09-20T09:56:38.884Z,13.53
2022-09-20T09:59:51.388Z,13.13
2022-09-20T10:03:18.721Z,12.81
2022-09-20T10:06:22.406Z,12.75
2022-09-20T10:09:34.279Z,12.53
2022-09-20T10:12:32.279Z,12.36
2022-09-20T10:15:31.683Z,12.60
2022-09-20T10:18:40.016Z,12.82
2022-09-20T10:21:41.391Z,13.10
2022-09-20T10:24:40.097Z,13.20
2022-09-20T10:27:41.351Z,13.56
2022-09-20T10:30:42.164Z,13.71
2022-09-20T10:33:37.616Z,13.86
2022-09-20T10:36:31.099Z,13.94
2022-09-20T10:39:26.623Z,14.30
2022-09-20T10:42:49.632Z,14.69
2022-09-20T10:49:15.744Z,14.50
2022-09-20T10:52:16.580Z,14.16
2022-09-20T10:55:33.559Z,13.74
2022-09-20T10:58:54.347Z,13.19
2022-09-20T11:01:54.528Z,13.00
2022-09-20T11:04:58.987Z,12.73
2022-09-20T11:07:56.078Z,12.53
2022-09-20T11:10:46.800Z,12.45
2022-09-20T11:13:40.036Z,12.44
2022-09-20T11:16:33.766Z,12.60
2022-09-20T11:19:31.499Z,12.44
2022-09-20T11:22:23.751Z,12.42
2022-09-20T11:25:20.878Z,12.45
2022-09-20T11:28:15.423Z,12.45
2022-09-20T11:31:08.434Z,12.29
2022-09-20T11:34:01.492Z,12.18
2022-09-20T11:36:57.640Z,12.20
2022-09-20T11:39:50.217Z,12.44
2022-09-20T11:42:40.871Z,12.33
2022-09-20T11:45:30.868Z,12.27
2022-09-20T11:48:25.219Z,12.21
2022-09-20T11:51:41.277Z,12.24
2022-09-20T11:55:13.889Z,12.52
2022-09-20T11:58:03.214Z,12.75
2022-09-20T12:00:54.376Z,12.79
2022-09-20T12:03:44.640Z,13.04
2022-09-20T12:06:34.597Z,13.24
2022-09-20T12:09:27.713Z,13.38
2022-09-20T12:12:27.516Z,13.64
2022-09-20T12:15:26.004Z,14.06
2022-09-20T12:18:38.332Z,14.16
2022-09-20T12:21:24.945Z,14.25
2022-09-20T12:24:23.156Z,14.18
2022-09-20T12:27:44.708Z,14.15
2022-09-20T12:30:33.965Z,14.00
2022-09-20T12:33:22.255Z,14.07
2022-09-20T12:36:27.800Z,13.92
2022-09-20T12:39:23.323Z,13.93
2022-09-20T12:42:29.937Z,13.84
2022-09-20T12:45:19.334Z,13.48
2022-09-20T12:48:06.265Z,13.43
2022-09-20T12:51:21.381Z,13.43
2022-09-20T12:54:11.624Z,13.62
2022-09-20T12:57:19.115Z,13.80
2022-09-20T13:00:09.693Z,14.23
2022-09-20T13:03:01.177Z,14.25
2022-09-20T13:05:52.695Z,14.14
2022-09-20T13:08:43.996Z,13.76
2022-09-20T13:11:35.366Z,13.58
2022-09-20T13:14:24.889Z,13.46
2022-09-20T13:17:23.987Z,13.41
2022-09-20T13:20:19.297Z,12.97
2022-09-20T13:23:06.594Z,12.71
2022-09-20T13:25:54.365Z,12.60
2022-09-20T13:28:48.576Z,12.46
2022-09-20T13:31:35.966Z,12.36
2022-09-20T13:34:26.042Z,12.31
2022-09-20T13:37:21.157Z,12.39
2022-09-20T13:40:08.186Z,12.47
2022-09-20T13:43:19.686Z,12.52
2022-09-20T13:46:12.336Z,12.40
2022-09-20T13:49:17.627Z,12.19
2022-09-20T13:52:24.660Z,12.04
2022-09-20T13:55:28.656Z,12.15
2022-09-20T13:58:22.361Z,12.02
2022-09-20T14:01:24.161Z,12.06
2022-09-20T14:04:17.094Z,12.09
2022-09-20T14:07:08.452Z,12.09
2022-09-20T14:09:58.297Z,12.20
2022-09-20T14:12:46.049Z,12.35
2022-09-20T14:15:37.552Z,12.53
2022-09-20T14:18:24.669Z,12.63
2022-09-20T14:21:13.111Z,12.71
2022-09-20T14:24:03.122Z,12.84
2022-09-20T14:27:05.185Z,13.06
2022-09-20T14:29:53.351Z,13.09
2022-09-20T14:32:45.728Z,13.13
2022-09-20T14:35:33.039Z,13.19
2022-09-20T14:38:24.664Z,13.33
2022-09-20T14:41:11.812Z,13.30
2022-09-20T14:44:02.683Z,13.12
2022-09-20T14:46:49.301Z,13.01
2022-09-20T14:49:41.095Z,13.04
2022-09-20T14:52:39.272Z,12.84
2022-09-20T14:55:28.605Z,12.58
2022-09-20T14:58:16.259Z,12.51
2022-09-20T15:01:24.703Z,12.35
2022-09-20T15:04:21.045Z,12.34
2022-09-20T15:07:11.613Z,12.02
2022-09-20T15:09:58.467Z,11.86
2022-09-20T15:12:45.079Z,11.66
2022-09-20T15:15:32.008Z,11.55
2022-09-20T15:18:23.304Z,11.45
2022-09-20T15:21:10.913Z,11.28
2022-09-20T15:23:57.305Z,11.26
2022-09-20T15:26:45.000Z,11.29
2022-09-20T15:29:31.880Z,11.26
2022-09-20T15:32:18.338Z,11.18
2022-09-20T15:35:08.471Z,11.13
2022-09-20T15:37:55.213Z,11.06
2022-09-20T15:40:42.514Z,11.04
2022-09-20T15:43:31.173Z,10.95
2022-09-20T15:46:20.648Z,10.88
2022-09-20T15:49:09.047Z,10.81
2022-09-20T15:51:57.274Z,10.75
2022-09-20T15:54:43.862Z,10.73
2022-09-20T15:57:31.267Z,10.87
2022-09-20T16:00:19.032Z,10.88
2022-09-20T16:03:05.841Z,10.95
2022-09-20T16:06:03.471Z,10.87
2022-09-20T16:08:53.015Z,10.74
2022-09-20T16:11:40.245Z,10.62
2022-09-20T16:14:27.004Z,10.52
2022-09-20T16:17:13.887Z,10.47
2022-09-20T16:19:59.583Z,10.45
2022-09-20T16:22:47.140Z,10.50
2022-09-20T16:25:35.104Z,10.32
2022-09-20T16:28:21.911Z,10.25
2022-09-20T16:31:30.403Z,10.23
2022-09-20T16:34:19.401Z,9.97
2022-09-20T16:37:09.149Z,9.89
2022-09-20T16:39:57.375Z,9.77
2022-09-20T16:42:52.044Z,9.70
2022-09-20T16:45:39.041Z,9.64
2022-09-20T16:48:31.081Z,9.51
2022-09-20T16:51:17.657Z,9.48
2022-09-20T16:54:06.784Z,9.49
2022-09-20T16:56:53.804Z,9.39
2022-09-20T16:59:42.027Z,9.33
2022-09-20T17:02:28.842Z,9.22
2022-09-20T17:05:15.733Z,9.31
2022-09-20T17:08:02.564Z,9.19
2022-09-20T17:10:49.896Z,9.17
2022-09-20T17:13:36.660Z,9.08
2022-09-20T17:16:27.849Z,9.07
2022-09-20T17:19:15.981Z,9.00
2022-09-20T17:22:03.220Z,8.96
2022-09-20T17:24:50.072Z,8.89
2022-09-20T17:27:39.787Z,8.93
2022-09-20T17:30:26.709Z,8.90
2022-09-20T17:33:15.585Z,8.82
2022-09-20T17:36:03.658Z,8.88
2022-09-20T17:38:55.161Z,8.82
2022-09-20T17:41:42.795Z,8.86
2022-09-20T17:44:29.618Z,8.90
2022-09-20T17:47:18.233Z,9.01
2022-09-20T17:50:06.999Z,8.98
2022-09-20T17:52:53.764Z,8.94
2022-09-20T17:55:40.648Z,8.87
2022-09-20T17:58:27.797Z,8.89
2022-09-20T18:01:17.713Z,8.74
2022-09-20T18:04:06.299Z,8.68
2022-09-20T18:07:04.297Z,8.60
2022-09-20T18:09:52.543Z,8.45
2022-09-20T18:12:39.263Z,8.47
2022-09-20T18:15:26.769Z,8.42
2022-09-20T18:18:13.292Z,8.41
2022-09-20T18:21:00.604Z,8.37
2022-09-20T18:23:50.609Z,8.40
2022-09-20T18:26:38.806Z,8.44
2022-09-20T18:29:25.308Z,8.36
2022-09-20T18:32:12.488Z,8.28
2022-09-20T18:34:59.132Z,8.23
2022-09-20T18:37:47.276Z,8.23
2022-09-20T18:40:38.289Z,8.10
2022-09-20T18:43:24.801Z,8.06
2022-09-20T18:46:12.816Z,8.08
2022-09-20T18:49:02.235Z,8.00
2022-09-20T18:51:50.131Z,7.96
2022-09-20T18:54:37.417Z,7.88
2022-09-20T18:57:25.965Z,7.88
2022-09-20T19:00:14.258Z,7.86
2022-09-20T19:03:10.324Z,7.87
2022-09-20T19:06:06.481Z,7.81
2022-09-20T19:09:01.592Z,7.80
2022-09-20T19:11:55.430Z,7.80
2022-09-20T19:15:12.987Z,7.78
2022-09-20T19:18:12.516Z,7.69
2022-09-20T19:21:08.280Z,7.73
2022-09-20T19:24:08.980Z,7.67
2022-09-20T19:26:56.004Z,7.88
2022-09-20T19:29:44.912Z,7.74
2022-09-20T19:32:32.072Z,7.68
2022-09-20T19:35:23.560Z,7.65
2022-09-20T19:38:17.774Z,7.65
2022-09-20T19:41:20.309Z,7.60
2022-09-20T19:44:40.614Z,7.57
2022-09-20T19:47:38.151Z,7.59
2022-09-20T19:50:33.360Z,7.50
2022-09-20T19:53:24.272Z,7.40
2022-09-20T19:56:24.857Z,7.26
2022-09-20T19:59:18.407Z,7.18
2022-09-20T20:02:06.096Z,7.44
2022-09-20T20:04:54.469Z,7.42
2022-09-20T20:07:47.517Z,7.47
2022-09-20T20:10:43.197Z,7.38
2022-09-20T20:13:54.010Z,7.47
2022-09-20T20:16:50.734Z,7.56
2022-09-20T20:19:51.247Z,7.48
2022-09-20T20:23:12.797Z,7.42
2022-09-20T20:26:03.440Z,7.39
2022-09-20T20:28:50.872Z,7.34
2022-09-20T20:31:37.770Z,7.32
2022-09-20T20:34:26.543Z,7.30
2022-09-20T20:37:14.036Z,7.29
2022-09-20T20:40:02.607Z,7.34
2022-09-20T20:42:49.930Z,7.45
2022-09-20T20:45:38.777Z,7.42
2022-09-20T20:48:25.535Z,7.39
2022-09-20T20:51:23.219Z,7.35
2022-09-20T20:54:11.127Z,7.35
2022-09-20T20:56:59.822Z,7.46
2022-09-20T20:59:47.002Z,7.42
2022-09-20T21:02:33.989Z,7.35
2022-09-20T21:05:23.460Z,7.28
2022-09-20T21:08:11.429Z,7.20
2022-09-20T21:11:02.207Z,7.15
2022-09-20T21:13:50.678Z,7.12
2022-09-20T21:16:42.529Z,7.13
2022-09-20T21:19:29.472Z,7.12
2022-09-20T21:22:16.206Z,7.06
2022-09-20T21:25:02.980Z,7.07
2022-09-20T21:27:50.332Z,7.07
2022-09-20T21:30:38.511Z,6.97
2022-09-20T21:33:25.803Z,6.91
2022-09-20T21:36:15.439Z,6.71
2022-09-20T21:39:02.100Z,6.71
2022-09-20T21:41:48.994Z,6.72
2022-09-20T21:44:36.576Z,6.60
2022-09-20T21:47:25.124Z,6.57
2022-09-20T21:50:11.816Z,6.46
2022-09-20T21:52:58.599Z,6.46
2022-09-20T21:55:45.431Z,6.48
2022-09-20T21:58:32.233Z,6.54
2022-09-20T22:01:21.486Z,6.55
2022-09-20T22:04:11.532Z,6.63
2022-09-20T22:06:58.551Z,6.67
2022-09-20T22:09:45.359Z,6.62
2022-09-20T22:12:31.854Z,6.59
2022-09-20T22:15:18.663Z,6.52
2022-09-20T22:18:06.574Z,6.49
2022-09-20T22:21:04.747Z,6.46
2022-09-20T22:23:53.868Z,6.54
2022-09-20T22:26:42.621Z,6.52
2022-09-20T22:29:30.172Z,6.48
2022-09-20T22:32:18.071Z,6.54
2022-09-20T22:35:06.552Z,6.40
2022-09-20T22:37:57.475Z,6.34
2022-09-20T22:40:53.929Z,6.35
2022-09-20T22:43:40.518Z,6.25
2022-09-20T22:46:29.492Z,6.17
2022-09-20T22:49:15.886Z,6.05
2022-09-20T22:52:03.035Z,5.95
2022-09-20T22:54:50.769Z,5.88
2022-09-20T22:57:37.532Z,5.86
2022-09-20T23:00:24.340Z,5.80
2022-09-20T23:03:11.161Z,5.77
2022-09-20T23:05:57.847Z,5.77
2022-09-20T23:08:44.750Z,5.69
2022-09-20T23:11:33.561Z,5.61
2022-09-20T23:14:22.185Z,5.63
2022-09-20T23:17:08.544Z,5.74
2022-09-20T23:19:55.382Z,5.74
2022-09-20T23:22:43.520Z,5.69
2022-09-20T23:25:31.632Z,5.66
2022-09-20T23:28:21.232Z,5.82
2022-09-20T23:31:10.258Z,5.85
2022-09-20T23:33:59.051Z,5.80
2022-09-20T23:36:46.362Z,5.77
2022-09-20T23:39:33.061Z,5.77
2022-09-20T23:42:19.813Z,5.72
2022-09-20T23:45:09.739Z,5.57
2022-09-20T23:47:56.440Z,5.49
2022-09-20T23:50:44.240Z,5.57
2022-09-20T23:53:31.277Z,5.59
2022-09-20T23:56:18.133Z,5.53
2022-09-20T23:59:04.645Z,5.49
